sensor_id;sensor_type;location;lat;lon;timestamp;pressure;altitude;pressure_sealevel;temperature;humidity
65394;BME280;52002;49.760;6.512;2023-05-20T00:01:35;100343.42;;;14.74;47.98
65394;BME280;52002;49.760;6.512;2023-05-20T00:04:01;100349.90;;;14.73;48.14
65394;BME280;52002;49.760;6.512;2023-05-20T00:06:26;100348.92;;;14.72;48.33
65394;BME280;52002;49.760;6.512;2023-05-20T00:08:51;100350.09;;;14.71;48.19
65394;BME280;52002;49.760;6.512;2023-05-20T00:11:17;100346.42;;;14.70;48.20
65394;BME280;52002;49.760;6.512;2023-05-20T00:13:42;100344.60;;;14.69;48.12
65394;BME280;52002;49.760;6.512;2023-05-20T00:16:07;100340.80;;;14.67;48.10
65394;BME280;52002;49.760;6.512;2023-05-20T00:18:33;100339.58;;;14.65;48.16
65394;BME280;52002;49.760;6.512;2023-05-20T00:20:58;100342.07;;;14.64;48.10
65394;BME280;52002;49.760;6.512;2023-05-20T00:23:23;100345.08;;;14.62;48.21
65394;BME280;52002;49.760;6.512;2023-05-20T00:25:49;100344.25;;;14.60;48.27
65394;BME280;52002;49.760;6.512;2023-05-20T00:28:14;100345.38;;;14.57;48.36
65394;BME280;52002;49.760;6.512;2023-05-20T00:30:40;100345.63;;;14.55;48.42
65394;BME280;52002;49.760;6.512;2023-05-20T00:33:06;100345.27;;;14.55;48.64
65394;BME280;52002;49.760;6.512;2023-05-20T00:35:31;100342.91;;;14.52;48.95
65394;BME280;52002;49.760;6.512;2023-05-20T00:37:57;100339.58;;;14.50;48.88
65394;BME280;52002;49.760;6.512;2023-05-20T00:40:22;100339.11;;;14.47;48.79
65394;BME280;52002;49.760;6.512;2023-05-20T00:42:49;100338.77;;;14.45;48.90
65394;BME280;52002;49.760;6.512;2023-05-20T00:45:14;100337.64;;;14.41;49.18
65394;BME280;52002;49.760;6.512;2023-05-20T00:47:41;100333.86;;;14.40;49.43
65394;BME280;52002;49.760;6.512;2023-05-20T00:50:08;100333.58;;;14.37;49.48
65394;BME280;52002;49.760;6.512;2023-05-20T00:52:34;100332.52;;;14.35;49.83
65394;BME280;52002;49.760;6.512;2023-05-20T00:55:02;100326.30;;;14.33;50.03
65394;BME280;52002;49.760;6.512;2023-05-20T00:57:27;100330.55;;;14.32;50.15
65394;BME280;52002;49.760;6.512;2023-05-20T00:59:53;100329.46;;;14.28;50.10
65394;BME280;52002;49.760;6.512;2023-05-20T01:02:19;100323.66;;;14.25;50.28
65394;BME280;52002;49.760;6.512;2023-05-20T01:04:44;100325.10;;;14.24;50.53
65394;BME280;52002;49.760;6.512;2023-05-20T01:07:12;100320.50;;;14.21;50.59
65394;BME280;52002;49.760;6.512;2023-05-20T01:09:39;100321.55;;;14.20;50.72
65394;BME280;52002;49.760;6.512;2023-05-20T01:12:13;100314.71;;;14.16;50.70
65394;BME280;52002;49.760;6.512;2023-05-20T01:14:58;100317.16;;;14.15;50.69
65394;BME280;52002;49.760;6.512;2023-05-20T01:17:26;100318.23;;;14.12;50.61
65394;BME280;52002;49.760;6.512;2023-05-20T01:19:57;100318.33;;;14.08;50.72
65394;BME280;52002;49.760;6.512;2023-05-20T01:22:25;100322.27;;;14.07;50.81
65394;BME280;52002;49.760;6.512;2023-05-20T01:24:51;100323.94;;;14.06;50.89
65394;BME280;52002;49.760;6.512;2023-05-20T01:27:20;100320.52;;;14.04;50.83
65394;BME280;52002;49.760;6.512;2023-05-20T01:29:48;100320.20;;;14.04;50.89
65394;BME280;52002;49.760;6.512;2023-05-20T01:32:27;100314.46;;;14.02;50.66
65394;BME280;52002;49.760;6.512;2023-05-20T01:34:54;100314.59;;;14.01;50.94
65394;BME280;52002;49.760;6.512;2023-05-20T01:37:21;100311.84;;;14.00;50.80
65394;BME280;52002;49.760;6.512;2023-05-20T01:39:48;100313.58;;;13.99;50.93
65394;BME280;52002;49.760;6.512;2023-05-20T01:42:15;100312.75;;;13.98;51.01
65394;BME280;52002;49.760;6.512;2023-05-20T01:44:42;100313.41;;;13.97;51.08
65394;BME280;52002;49.760;6.512;2023-05-20T01:47:08;100311.70;;;13.94;51.34
65394;BME280;52002;49.760;6.512;2023-05-20T01:49:33;100314.84;;;13.93;51.25
65394;BME280;52002;49.760;6.512;2023-05-20T01:51:58;100310.33;;;13.92;51.13
65394;BME280;52002;49.760;6.512;2023-05-20T01:54:24;100308.36;;;13.92;51.09
65394;BME280;52002;49.760;6.512;2023-05-20T01:56:49;100301.66;;;13.91;51.23
65394;BME280;52002;49.760;6.512;2023-05-20T01:59:15;100299.25;;;13.88;51.36
65394;BME280;52002;49.760;6.512;2023-05-20T02:01:40;100301.81;;;13.87;51.14
65394;BME280;52002;49.760;6.512;2023-05-20T02:04:06;100298.41;;;13.86;51.28
65394;BME280;52002;49.760;6.512;2023-05-20T02:06:31;100300.10;;;13.85;51.20
65394;BME280;52002;49.760;6.512;2023-05-20T02:08:57;100299.61;;;13.82;51.30
65394;BME280;52002;49.760;6.512;2023-05-20T02:11:22;100296.16;;;13.81;51.24
65394;BME280;52002;49.760;6.512;2023-05-20T02:13:48;100295.16;;;13.78;51.19
65394;BME280;52002;49.760;6.512;2023-05-20T02:16:14;100293.21;;;13.76;51.55
65394;BME280;52002;49.760;6.512;2023-05-20T02:18:39;100290.36;;;13.74;51.56
65394;BME280;52002;49.760;6.512;2023-05-20T02:21:06;100288.81;;;13.72;51.61
65394;BME280;52002;49.760;6.512;2023-05-20T02:23:32;100290.31;;;13.71;51.88
65394;BME280;52002;49.760;6.512;2023-05-20T02:25:58;100291.84;;;13.70;51.98
65394;BME280;52002;49.760;6.512;2023-05-20T02:28:23;100294.08;;;13.69;51.83
65394;BME280;52002;49.760;6.512;2023-05-20T02:30:49;100288.98;;;13.69;51.98
65394;BME280;52002;49.760;6.512;2023-05-20T02:33:18;100292.16;;;13.69;52.06
65394;BME280;52002;49.760;6.512;2023-05-20T02:35:43;100293.11;;;13.68;52.03
65394;BME280;52002;49.760;6.512;2023-05-20T02:38:09;100288.91;;;13.65;52.17
65394;BME280;52002;49.760;6.512;2023-05-20T02:40:35;100286.73;;;13.64;52.37
65394;BME280;52002;49.760;6.512;2023-05-20T02:43:02;100287.80;;;13.64;52.68
65394;BME280;52002;49.760;6.512;2023-05-20T02:45:28;100290.88;;;13.64;52.75
65394;BME280;52002;49.760;6.512;2023-05-20T02:47:54;100290.51;;;13.64;52.56
65394;BME280;52002;49.760;6.512;2023-05-20T02:50:19;100291.64;;;13.63;52.21
65394;BME280;52002;49.760;6.512;2023-05-20T02:52:45;100293.28;;;13.61;52.06
65394;BME280;52002;49.760;6.512;2023-05-20T02:55:11;100290.15;;;13.60;52.16
65394;BME280;52002;49.760;6.512;2023-05-20T02:57:37;100287.70;;;13.60;52.02
65394;BME280;52002;49.760;6.512;2023-05-20T03:00:06;100286.98;;;13.59;52.10
65394;BME280;52002;49.760;6.512;2023-05-20T03:02:35;100280.92;;;13.59;52.28
65394;BME280;52002;49.760;6.512;2023-05-20T03:05:00;100283.23;;;13.59;52.26
65394;BME280;52002;49.760;6.512;2023-05-20T03:07:27;100278.02;;;13.60;52.26
65394;BME280;52002;49.760;6.512;2023-05-20T03:09:52;100276.40;;;13.60;52.33
65394;BME280;52002;49.760;6.512;2023-05-20T03:12:18;100279.98;;;13.60;52.32
65394;BME280;52002;49.760;6.512;2023-05-20T03:14:43;100280.75;;;13.59;52.37
65394;BME280;52002;49.760;6.512;2023-05-20T03:17:09;100283.14;;;13.59;52.38
65394;BME280;52002;49.760;6.512;2023-05-20T03:19:35;100279.37;;;13.59;52.39
65394;BME280;52002;49.760;6.512;2023-05-20T03:22:01;100278.92;;;13.58;52.36
65394;BME280;52002;49.760;6.512;2023-05-20T03:24:27;100282.44;;;13.57;52.53
65394;BME280;52002;49.760;6.512;2023-05-20T03:26:52;100282.21;;;13.57;52.61
65394;BME280;52002;49.760;6.512;2023-05-20T03:29:18;100286.05;;;13.56;52.46
65394;BME280;52002;49.760;6.512;2023-05-20T03:31:44;100286.83;;;13.54;52.63
65394;BME280;52002;49.760;6.512;2023-05-20T03:34:09;100286.32;;;13.51;52.48
65394;BME280;52002;49.760;6.512;2023-05-20T03:36:34;100285.87;;;13.50;52.59
65394;BME280;52002;49.760;6.512;2023-05-20T03:39:00;100278.17;;;13.48;52.70
65394;BME280;52002;49.760;6.512;2023-05-20T03:41:28;100280.25;;;13.49;52.84
65394;BME280;52002;49.760;6.512;2023-05-20T03:43:54;100277.84;;;13.48;52.71
65394;BME280;52002;49.760;6.512;2023-05-20T03:46:19;100272.77;;;13.47;53.04
65394;BME280;52002;49.760;6.512;2023-05-20T03:48:44;100271.02;;;13.47;53.03
65394;BME280;52002;49.760;6.512;2023-05-20T03:51:10;100266.59;;;13.46;52.97
65394;BME280;52002;49.760;6.512;2023-05-20T03:53:35;100263.21;;;13.46;53.26
65394;BME280;52002;49.760;6.512;2023-05-20T03:56:01;100266.58;;;13.46;53.19
65394;BME280;52002;49.760;6.512;2023-05-20T03:58:26;100262.98;;;13.47;53.19
65394;BME280;52002;49.760;6.512;2023-05-20T04:00:56;100267.89;;;13.48;53.25
65394;BME280;52002;49.760;6.512;2023-05-20T04:03:22;100269.10;;;13.48;53.26
65394;BME280;52002;49.760;6.512;2023-05-20T04:05:48;100272.76;;;13.49;53.36
65394;BME280;52002;49.760;6.512;2023-05-20T04:08:13;100268.05;;;13.49;53.33
65394;BME280;52002;49.760;6.512;2023-05-20T04:10:41;100273.84;;;13.51;53.42
65394;BME280;52002;49.760;6.512;2023-05-20T04:13:07;100270.39;;;13.51;53.51
65394;BME280;52002;49.760;6.512;2023-05-20T04:15:37;100269.15;;;13.53;53.40
65394;BME280;52002;49.760;6.512;2023-05-20T04:18:05;100264.52;;;13.55;53.45
65394;BME280;52002;49.760;6.512;2023-05-20T04:20:31;100264.90;;;13.60;53.55
65394;BME280;52002;49.760;6.512;2023-05-20T04:22:57;100261.11;;;13.66;53.44
65394;BME280;52002;49.760;6.512;2023-05-20T04:25:23;100258.38;;;13.74;53.42
65394;BME280;52002;49.760;6.512;2023-05-20T04:27:48;100260.73;;;13.81;53.18
65394;BME280;52002;49.760;6.512;2023-05-20T04:30:14;100259.73;;;13.88;53.14
65394;BME280;52002;49.760;6.512;2023-05-20T04:32:42;100259.77;;;13.94;53.06
65394;BME280;52002;49.760;6.512;2023-05-20T04:35:08;100264.96;;;14.00;52.93
65394;BME280;52002;49.760;6.512;2023-05-20T04:37:36;100269.15;;;14.08;52.72
65394;BME280;52002;49.760;6.512;2023-05-20T04:40:03;100267.82;;;14.15;52.56
65394;BME280;52002;49.760;6.512;2023-05-20T04:42:28;100273.25;;;14.19;52.50
65394;BME280;52002;49.760;6.512;2023-05-20T04:44:54;100272.67;;;14.20;52.53
65394;BME280;52002;49.760;6.512;2023-05-20T04:47:19;100270.16;;;14.20;52.55
65394;BME280;52002;49.760;6.512;2023-05-20T04:49:45;100264.33;;;14.23;52.60
65394;BME280;52002;49.760;6.512;2023-05-20T04:52:10;100265.52;;;14.25;52.62
65394;BME280;52002;49.760;6.512;2023-05-20T04:54:35;100268.27;;;14.28;52.52
65394;BME280;52002;49.760;6.512;2023-05-20T04:57:00;100266.10;;;14.30;52.45
65394;BME280;52002;49.760;6.512;2023-05-20T04:59:26;100262.42;;;14.33;52.40
65394;BME280;52002;49.760;6.512;2023-05-20T05:01:52;100259.38;;;14.38;52.41
65394;BME280;52002;49.760;6.512;2023-05-20T05:04:17;100259.48;;;14.45;52.31
65394;BME280;52002;49.760;6.512;2023-05-20T05:06:43;100250.73;;;14.50;52.18
65394;BME280;52002;49.760;6.512;2023-05-20T05:09:08;100251.77;;;14.59;52.30
65394;BME280;52002;49.760;6.512;2023-05-20T05:11:34;100251.73;;;14.70;52.07
65394;BME280;52002;49.760;6.512;2023-05-20T05:13:59;100249.95;;;14.80;51.91
65394;BME280;52002;49.760;6.512;2023-05-20T05:16:25;100251.64;;;14.90;51.83
65394;BME280;52002;49.760;6.512;2023-05-20T05:18:50;100253.83;;;15.00;51.79
65394;BME280;52002;49.760;6.512;2023-05-20T05:21:16;100256.91;;;15.12;51.54
65394;BME280;52002;49.760;6.512;2023-05-20T05:23:41;100258.20;;;15.27;51.35
65394;BME280;52002;49.760;6.512;2023-05-20T05:26:07;100259.57;;;15.43;51.05
65394;BME280;52002;49.760;6.512;2023-05-20T05:28:32;100255.98;;;15.97;50.27
65394;BME280;52002;49.760;6.512;2023-05-20T05:30:58;100250.36;;;17.80;47.90
65394;BME280;52002;49.760;6.512;2023-05-20T05:33:23;100252.48;;;19.82;45.44
65394;BME280;52002;49.760;6.512;2023-05-20T05:35:49;100251.09;;;21.39;43.02
65394;BME280;52002;49.760;6.512;2023-05-20T05:38:15;100254.09;;;22.58;40.95
65394;BME280;52002;49.760;6.512;2023-05-20T05:40:41;100257.38;;;23.33;39.22
65394;BME280;52002;49.760;6.512;2023-05-20T05:43:06;100266.11;;;23.77;38.01
65394;BME280;52002;49.760;6.512;2023-05-20T05:45:31;100265.20;;;24.10;37.11
65394;BME280;52002;49.760;6.512;2023-05-20T05:47:57;100265.05;;;24.31;36.25
65394;BME280;52002;49.760;6.512;2023-05-20T05:50:22;100260.74;;;24.57;35.64
65394;BME280;52002;49.760;6.512;2023-05-20T05:52:48;100261.85;;;24.94;35.06
65394;BME280;52002;49.760;6.512;2023-05-20T05:55:13;100256.95;;;25.30;34.32
65394;BME280;52002;49.760;6.512;2023-05-20T05:57:38;100255.64;;;25.47;34.05
65394;BME280;52002;49.760;6.512;2023-05-20T06:00:04;100257.64;;;25.85;33.71
65394;BME280;52002;49.760;6.512;2023-05-20T06:02:30;100261.81;;;26.31;32.92
65394;BME280;52002;49.760;6.512;2023-05-20T06:05:01;100261.59;;;26.30;32.52
65394;BME280;52002;49.760;6.512;2023-05-20T06:07:27;100264.11;;;26.53;32.23
65394;BME280;52002;49.760;6.512;2023-05-20T06:09:52;100262.29;;;26.89;31.19
65394;BME280;52002;49.760;6.512;2023-05-20T06:12:17;100260.89;;;27.28;30.89
65394;BME280;52002;49.760;6.512;2023-05-20T06:14:42;100260.65;;;27.09;30.85
65394;BME280;52002;49.760;6.512;2023-05-20T06:17:08;100265.26;;;26.67;30.90
65394;BME280;52002;49.760;6.512;2023-05-20T06:19:33;100260.38;;;26.45;31.04
65394;BME280;52002;49.760;6.512;2023-05-20T06:21:58;100258.23;;;26.30;31.18
65394;BME280;52002;49.760;6.512;2023-05-20T06:24:24;100248.65;;;25.86;31.29
65394;BME280;52002;49.760;6.512;2023-05-20T06:26:49;100250.83;;;25.37;32.00
65394;BME280;52002;49.760;6.512;2023-05-20T06:29:15;100254.62;;;24.82;32.47
65394;BME280;52002;49.760;6.512;2023-05-20T06:31:40;100260.06;;;24.47;32.82
65394;BME280;52002;49.760;6.512;2023-05-20T06:34:06;100263.79;;;24.21;33.34
65394;BME280;52002;49.760;6.512;2023-05-20T06:36:32;100263.08;;;23.91;33.77
65394;BME280;52002;49.760;6.512;2023-05-20T06:38:58;100258.84;;;23.49;34.31
65394;BME280;52002;49.760;6.512;2023-05-20T06:41:23;100253.19;;;23.12;34.75
65394;BME280;52002;49.760;6.512;2023-05-20T06:43:48;100252.16;;;22.77;35.06
65394;BME280;52002;49.760;6.512;2023-05-20T06:46:14;100248.95;;;22.44;35.53
65394;BME280;52002;49.760;6.512;2023-05-20T06:48:39;100245.13;;;22.33;35.93
65394;BME280;52002;49.760;6.512;2023-05-20T06:51:06;100241.84;;;22.58;36.05
65394;BME280;52002;49.760;6.512;2023-05-20T06:53:33;100235.45;;;23.04;35.43
65394;BME280;52002;49.760;6.512;2023-05-20T06:55:59;100231.23;;;23.36;35.16
65394;BME280;52002;49.760;6.512;2023-05-20T06:58:25;100226.61;;;23.57;35.23
65394;BME280;52002;49.760;6.512;2023-05-20T07:00:50;100233.14;;;24.04;34.90
65394;BME280;52002;49.760;6.512;2023-05-20T07:03:16;100230.55;;;24.59;34.19
65394;BME280;52002;49.760;6.512;2023-05-20T07:05:41;100224.95;;;25.14;33.31
65394;BME280;52002;49.760;6.512;2023-05-20T07:08:06;100222.80;;;25.54;32.65
65394;BME280;52002;49.760;6.512;2023-05-20T07:10:32;100225.58;;;25.64;32.26
65394;BME280;52002;49.760;6.512;2023-05-20T07:12:58;100221.91;;;25.88;32.09
65394;BME280;52002;49.760;6.512;2023-05-20T07:15:24;100225.08;;;26.37;31.74
65394;BME280;52002;49.760;6.512;2023-05-20T07:17:49;100220.79;;;27.13;30.90
65394;BME280;52002;49.760;6.512;2023-05-20T07:20:15;100213.75;;;27.33;30.31
65394;BME280;52002;49.760;6.512;2023-05-20T07:22:41;100211.80;;;27.00;30.59
65394;BME280;52002;49.760;6.512;2023-05-20T07:25:08;100209.98;;;26.51;31.42
65394;BME280;52002;49.760;6.512;2023-05-20T07:27:34;100209.59;;;26.30;31.45
65394;BME280;52002;49.760;6.512;2023-05-20T07:30:00;100204.05;;;27.26;30.67
65394;BME280;52002;49.760;6.512;2023-05-20T07:32:26;100201.05;;;29.42;28.97
65394;BME280;52002;49.760;6.512;2023-05-20T07:34:51;100198.61;;;31.71;27.00
65394;BME280;52002;49.760;6.512;2023-05-20T07:37:16;100197.71;;;33.71;25.28
65394;BME280;52002;49.760;6.512;2023-05-20T07:39:42;100187.90;;;35.51;23.81
65394;BME280;52002;49.760;6.512;2023-05-20T07:42:07;100191.24;;;37.12;22.44
65394;BME280;52002;49.760;6.512;2023-05-20T07:44:32;100189.94;;;37.81;21.30
65394;BME280;52002;49.760;6.512;2023-05-20T07:46:58;100181.86;;;38.32;20.66
65394;BME280;52002;49.760;6.512;2023-05-20T07:49:23;100177.19;;;38.40;20.10
65394;BME280;52002;49.760;6.512;2023-05-20T07:51:49;100175.36;;;38.44;19.90
65394;BME280;52002;49.760;6.512;2023-05-20T07:54:15;100171.48;;;38.88;19.64
65394;BME280;52002;49.760;6.512;2023-05-20T07:56:40;100167.28;;;39.17;19.35
65394;BME280;52002;49.760;6.512;2023-05-20T07:59:06;100167.05;;;39.67;19.22
65394;BME280;52002;49.760;6.512;2023-05-20T08:01:31;100164.45;;;40.17;18.27
65394;BME280;52002;49.760;6.512;2023-05-20T08:03:57;100160.30;;;40.72;17.89
65394;BME280;52002;49.760;6.512;2023-05-20T08:06:22;100156.48;;;40.91;17.82
65394;BME280;52002;49.760;6.512;2023-05-20T08:08:51;100153.17;;;41.16;17.49
65394;BME280;52002;49.760;6.512;2023-05-20T08:11:19;100150.13;;;41.41;17.25
65394;BME280;52002;49.760;6.512;2023-05-20T08:13:46;100146.05;;;41.94;17.17
65394;BME280;52002;49.760;6.512;2023-05-20T08:16:11;100147.50;;;42.15;16.57
65394;BME280;52002;49.760;6.512;2023-05-20T08:18:37;100145.38;;;42.07;16.61
65394;BME280;52002;49.760;6.512;2023-05-20T08:21:03;100149.45;;;42.00;16.62
65394;BME280;52002;49.760;6.512;2023-05-20T08:23:29;100147.56;;;42.10;16.65
65394;BME280;52002;49.760;6.512;2023-05-20T08:25:54;100148.52;;;42.22;16.61
65394;BME280;52002;49.760;6.512;2023-05-20T08:28:21;100143.17;;;42.49;16.49
65394;BME280;52002;49.760;6.512;2023-05-20T08:30:47;100146.42;;;42.23;16.33
65394;BME280;52002;49.760;6.512;2023-05-20T08:33:13;100148.77;;;42.20;16.52
65394;BME280;52002;49.760;6.512;2023-05-20T08:35:39;100141.55;;;42.65;16.51
65394;BME280;52002;49.760;6.512;2023-05-20T08:38:05;100141.73;;;43.04;16.31
65394;BME280;52002;49.760;6.512;2023-05-20T08:40:33;100139.54;;;42.46;15.92
65394;BME280;52002;49.760;6.512;2023-05-20T08:42:59;100141.41;;;40.86;16.89
65394;BME280;52002;49.760;6.512;2023-05-20T08:45:26;100136.90;;;39.72;17.55
65394;BME280;52002;49.760;6.512;2023-05-20T08:47:53;100133.66;;;37.22;18.82
65394;BME280;52002;49.760;6.512;2023-05-20T08:50:19;100133.81;;;35.48;20.11
65394;BME280;52002;49.760;6.512;2023-05-20T08:52:47;100132.81;;;33.05;21.82
65394;BME280;52002;49.760;6.512;2023-05-20T08:55:41;100122.10;;;30.97;23.74
65394;BME280;52002;49.760;6.512;2023-05-20T08:58:06;100114.19;;;29.29;25.78
65394;BME280;52002;49.760;6.512;2023-05-20T09:00:32;100111.92;;;28.52;26.95
65394;BME280;52002;49.760;6.512;2023-05-20T09:02:58;100112.45;;;27.80;28.12
65394;BME280;52002;49.760;6.512;2023-05-20T09:05:25;100110.14;;;27.13;28.99
65394;BME280;52002;49.760;6.512;2023-05-20T09:07:51;100111.14;;;26.32;30.10
65394;BME280;52002;49.760;6.512;2023-05-20T09:10:18;100121.81;;;25.64;31.05
65394;BME280;52002;49.760;6.512;2023-05-20T09:12:44;100119.17;;;25.09;32.03
65394;BME280;52002;49.760;6.512;2023-05-20T09:15:10;100109.88;;;24.54;32.99
65394;BME280;52002;49.760;6.512;2023-05-20T09:17:36;100106.38;;;24.12;33.98
65394;BME280;52002;49.760;6.512;2023-05-20T09:20:09;100107.36;;;23.67;34.74
65394;BME280;52002;49.760;6.512;2023-05-20T09:22:35;100116.98;;;23.53;35.32
65394;BME280;52002;49.760;6.512;2023-05-20T09:25:01;100115.16;;;23.50;35.54
65394;BME280;52002;49.760;6.512;2023-05-20T09:27:26;100114.99;;;23.47;35.67
65394;BME280;52002;49.760;6.512;2023-05-20T09:29:51;100114.23;;;23.59;36.23
65394;BME280;52002;49.760;6.512;2023-05-20T09:32:20;100114.23;;;23.78;36.26
65394;BME280;52002;49.760;6.512;2023-05-20T09:34:48;100117.16;;;23.80;36.07
65394;BME280;52002;49.760;6.512;2023-05-20T09:37:16;100118.13;;;23.56;36.24
65394;BME280;52002;49.760;6.512;2023-05-20T09:39:55;100115.23;;;23.43;36.27
65394;BME280;52002;49.760;6.512;2023-05-20T09:42:25;100115.80;;;23.21;36.80
65394;BME280;52002;49.760;6.512;2023-05-20T09:44:52;100107.98;;;23.08;37.06
65394;BME280;52002;49.760;6.512;2023-05-20T09:47:19;100108.13;;;23.10;37.42
65394;BME280;52002;49.760;6.512;2023-05-20T09:49:48;100111.00;;;22.98;37.53
65394;BME280;52002;49.760;6.512;2023-05-20T09:52:14;100113.85;;;22.96;37.74
65394;BME280;52002;49.760;6.512;2023-05-20T09:54:41;100114.69;;;22.97;37.92
65394;BME280;52002;49.760;6.512;2023-05-20T09:57:08;100109.23;;;22.84;38.08
65394;BME280;52002;49.760;6.512;2023-05-20T09:59:34;100104.07;;;22.67;38.28
65394;BME280;52002;49.760;6.512;2023-05-20T10:02:01;100103.39;;;22.62;38.58
65394;BME280;52002;49.760;6.512;2023-05-20T10:04:27;100101.12;;;22.52;38.85
65394;BME280;52002;49.760;6.512;2023-05-20T10:07:12;100102.52;;;22.37;38.95
65394;BME280;52002;49.760;6.512;2023-05-20T10:15:26;100085.27;;;22.03;40.25
65394;BME280;52002;49.760;6.512;2023-05-20T10:18:10;100086.61;;;22.00;40.13
65394;BME280;52002;49.760;6.512;2023-05-20T10:20:46;100084.88;;;22.06;40.24
65394;BME280;52002;49.760;6.512;2023-05-20T10:23:21;100071.76;;;22.06;40.34
65394;BME280;52002;49.760;6.512;2023-05-20T10:25:51;100074.59;;;22.08;40.73
65394;BME280;52002;49.760;6.512;2023-05-20T10:28:27;100075.65;;;22.19;40.79
65394;BME280;52002;49.760;6.512;2023-05-20T10:30:53;100081.11;;;22.47;40.47
65394;BME280;52002;49.760;6.512;2023-05-20T10:33:19;100078.86;;;22.39;40.29
65394;BME280;52002;49.760;6.512;2023-05-20T10:35:51;100071.95;;;22.37;40.64
65394;BME280;52002;49.760;6.512;2023-05-20T10:38:17;100063.77;;;22.28;40.67
65394;BME280;52002;49.760;6.512;2023-05-20T10:40:42;100063.60;;;22.23;40.97
65394;BME280;52002;49.760;6.512;2023-05-20T10:43:10;100061.02;;;22.22;40.82
65394;BME280;52002;49.760;6.512;2023-05-20T10:45:50;100057.94;;;22.11;40.94
65394;BME280;52002;49.760;6.512;2023-05-20T10:48:26;100058.40;;;22.09;41.14
65394;BME280;52002;49.760;6.512;2023-05-20T10:50:57;100052.98;;;22.06;41.13
65394;BME280;52002;49.760;6.512;2023-05-20T10:53:25;100054.49;;;21.99;41.33
65394;BME280;52002;49.760;6.512;2023-05-20T10:55:53;100057.13;;;21.92;41.65
65394;BME280;52002;49.760;6.512;2023-05-20T10:58:21;100057.17;;;21.91;41.54
65394;BME280;52002;49.760;6.512;2023-05-20T11:00:47;100055.41;;;21.92;41.68
65394;BME280;52002;49.760;6.512;2023-05-20T11:03:15;100059.66;;;22.05;41.92
65394;BME280;52002;49.760;6.512;2023-05-20T11:05:40;100055.56;;;22.09;41.57
65394;BME280;52002;49.760;6.512;2023-05-20T11:08:07;100051.02;;;22.02;41.48
65394;BME280;52002;49.760;6.512;2023-05-20T11:10:34;100047.39;;;21.87;41.75
65394;BME280;52002;49.760;6.512;2023-05-20T11:13:01;100049.48;;;21.94;41.89
65394;BME280;52002;49.760;6.512;2023-05-20T11:15:27;100047.47;;;21.95;41.70
65394;BME280;52002;49.760;6.512;2023-05-20T11:17:56;100052.13;;;21.89;42.04
65394;BME280;52002;49.760;6.512;2023-05-20T11:20:22;100050.29;;;21.83;41.92
65394;BME280;52002;49.760;6.512;2023-05-20T11:22:53;100038.45;;;21.78;42.10
65394;BME280;52002;49.760;6.512;2023-05-20T11:25:19;100035.56;;;21.70;42.42
65394;BME280;52002;49.760;6.512;2023-05-20T11:27:46;100040.54;;;21.68;42.40
65394;BME280;52002;49.760;6.512;2023-05-20T11:30:14;100036.25;;;21.55;42.66
65394;BME280;52002;49.760;6.512;2023-05-20T11:32:42;100033.20;;;21.55;42.65
65394;BME280;52002;49.760;6.512;2023-05-20T11:35:20;100019.86;;;21.65;42.90
65394;BME280;52002;49.760;6.512;2023-05-20T11:38:02;100026.25;;;21.81;42.61
65394;BME280;52002;49.760;6.512;2023-05-20T11:40:30;100028.20;;;21.97;42.49
65394;BME280;52002;49.760;6.512;2023-05-20T11:42:58;100029.23;;;21.99;42.15
65394;BME280;52002;49.760;6.512;2023-05-20T11:45:24;100031.24;;;21.94;42.29
65394;BME280;52002;49.760;6.512;2023-05-20T11:48:04;100028.14;;;22.03;42.41
65394;BME280;52002;49.760;6.512;2023-05-20T11:50:38;100028.35;;;22.03;42.22
65394;BME280;52002;49.760;6.512;2023-05-20T11:53:09;100026.23;;;21.95;42.23
65394;BME280;52002;49.760;6.512;2023-05-20T11:58:20;100016.27;;;22.08;42.16
65394;BME280;52002;49.760;6.512;2023-05-20T12:00:47;100024.58;;;22.22;42.13
65394;BME280;52002;49.760;6.512;2023-05-20T12:03:12;100017.33;;;22.19;41.95
65394;BME280;52002;49.760;6.512;2023-05-20T12:05:38;100016.42;;;22.25;42.01
65394;BME280;52002;49.760;6.512;2023-05-20T12:08:05;100014.61;;;22.35;41.86
65394;BME280;52002;49.760;6.512;2023-05-20T12:10:30;100015.70;;;22.26;41.94
65394;BME280;52002;49.760;6.512;2023-05-20T12:12:57;100012.02;;;22.16;42.07
65394;BME280;52002;49.760;6.512;2023-05-20T12:15:22;100006.93;;;22.07;41.95
65394;BME280;52002;49.760;6.512;2023-05-20T12:17:50;100000.02;;;21.96;42.14
65394;BME280;52002;49.760;6.512;2023-05-20T12:20:17;100002.60;;;21.99;42.15
65394;BME280;52002;49.760;6.512;2023-05-20T12:22:46;100000.78;;;22.10;42.23
65394;BME280;52002;49.760;6.512;2023-05-20T12:25:13;100000.94;;;22.13;42.07
65394;BME280;52002;49.760;6.512;2023-05-20T12:27:40;99993.88;;;22.26;42.20
65394;BME280;52002;49.760;6.512;2023-05-20T12:30:07;99994.25;;;22.36;41.83
65394;BME280;52002;49.760;6.512;2023-05-20T12:32:36;99991.48;;;22.42;41.68
65394;BME280;52002;49.760;6.512;2023-05-20T12:35:02;99985.58;;;22.41;41.72
65394;BME280;52002;49.760;6.512;2023-05-20T12:37:28;99984.28;;;22.47;41.94
65394;BME280;52002;49.760;6.512;2023-05-20T12:39:53;99986.10;;;22.53;41.59
65394;BME280;52002;49.760;6.512;2023-05-20T12:42:19;99979.49;;;22.34;41.53
65394;BME280;52002;49.760;6.512;2023-05-20T12:44:44;99972.41;;;22.22;41.70
65394;BME280;52002;49.760;6.512;2023-05-20T12:47:09;99961.91;;;22.16;41.95
65394;BME280;52002;49.760;6.512;2023-05-20T12:49:35;99967.04;;;22.20;42.31
65394;BME280;52002;49.760;6.512;2023-05-20T12:52:00;99965.91;;;22.21;42.10
65394;BME280;52002;49.760;6.512;2023-05-20T12:54:25;99964.30;;;22.09;41.78
65394;BME280;52002;49.760;6.512;2023-05-20T12:56:53;99965.50;;;22.03;42.17